Información del aeropuerto LEVS

Información de pista
Frecuencias del aeropuerto
Radioayudas del aeropuerto
Información meteorológica del aeropuerto y NOTAM
ADDS - METARS form results

(1637 UTC 15 August 2020)
Data provider http://aviationweather.gov/metar/data/
 
METAR text: LEVS 151630Z 21013KT 170V240 CAVOK 29/02 Q1014
Conditions at: LEVS (MADRID/CUATRO VI, ES) observed 1630 UTC 15 August 2020
Temperature: 29.0°C (84°F)
Dewpoint: 2.0°C (36°F) [RH = 18%]
Pressure (altimeter): 29.94 inches Hg (1014.0 mb)
Winds: from the SSW (210 degrees) at 15 MPH (13 knots; 6.7 m/s)
Visibility: 6 or more miles (10+ km)
Ceiling: ceiling and visibility are OK
Clouds: unknown
Weather: no significant weather observed at this time

METAR text: LEVS 151600Z 21014KT 180V250 CAVOK 29/02 Q1014
Conditions at: LEVS (MADRID/CUATRO VI, ES) observed 1600 UTC 15 August 2020
Temperature: 29.0°C (84°F)
Dewpoint: 2.0°C (36°F) [RH = 18%]
Pressure (altimeter): 29.94 inches Hg (1014.0 mb)
Winds: from the SSW (210 degrees) at 16 MPH (14 knots; 7.2 m/s)
Visibility: 6 or more miles (10+ km)
Ceiling: ceiling and visibility are OK
Clouds: unknown
Weather: no significant weather observed at this time

Forecast for: LEVS (MADRID/CUATRO VI, ES)
Text: TAF LEVS 151100Z 1512/1612 23010KT CAVOK TX31/1516Z TN15/1606Z
Forecast period: 1200 to 2000 UTC 15 August 2020
Forecast type: FROM: standard forecast or significant change
Winds: from the SW (230 degrees) at 12 MPH (10 knots; 5.1 m/s)
Visibility: 6 or more miles (10+ km)
Ceiling: unknown
Clouds: missing
Weather: no significant weather forecast for this period
Text: PROB30
Forecast period: 1200 to 2000 UTC 15 August 2020
Forecast type: TEMPORARY: The following changes expected for less than half the time period
Winds: from the SW (230 degrees) at 17 MPH (15 knots; 7.7 m/s)
gusting to 29 MPH (25 knots; 12.9 m/s)
Visibility: missing
Ceiling: unknown
Clouds: missing
Weather: no significant weather forecast for this period
Text: TEMPO 1512/1520 23015G25KT
Forecast period: 2000 UTC 15 August 2020 to 1200 UTC 16 August 2020
Forecast type: BECOMING: Conditions expected to become as follows by 2200 UTC 15 August 2020
Winds: variable direction winds at 6 MPH (5 knots; 2.6 m/s)
Visibility: 6 or more miles (10+ km)
Ceiling: unknown
Clouds: missing
Weather: no significant weather forecast for this period
Text: BECMG 1520/1522 VRB05KT
Forecast period: 1100 to 1200 UTC 16 August 2020
Forecast type: TEMPORARY: The following changes expected for less than half the time period
Winds: from the WSW (240 degrees) at 12 MPH (10 knots; 5.1 m/s)
Visibility: missing
Ceiling: unknown
Clouds: missing
Weather: no significant weather forecast for this period